<?xml version="1.0" encoding="UTF-8" standalone="no" ?>
<gpx xmlns="http://www.topografix.com/GPX/1/1" xmlns:xsi="http://www.w3.org/2001/XMLSchema-instance" xsi:schemaLocation="http://www.topografix.com/GPX/1/1 http://www.topografix.com/GPX/1/1/gpx.xsd" version="1.1" creator="VisuGPX - https://www.visugpx.com">
  <metadata>
    <name>Maroc 2018 - Trajet complet</name>
    <desc><![CDATA[Maroc 2018 - Trajet complet de tassa ouirgane au Toubkal et retour à Imlil]]></desc>
  </metadata>
  <trk>
    <name><![CDATA[2018-06-21 14:25:48]]></name>
    <trkseg>
      <trkpt lat="31.06591" lon="-7.93752">
        <ele>2992.52</ele>
        <time>2018-06-21T07:35:25Z</time>
      </trkpt>
      <trkpt lat="31.06565" lon="-7.93694">
        <ele>2984.68</ele>
        <time>2018-06-21T07:36:25Z</time>
      </trkpt>
      <trkpt lat="31.06528" lon="-7.93699">
        <ele>2983.74</ele>
        <time>2018-06-21T07:37:25Z</time>
      </trkpt>
      <trkpt lat="31.06578" lon="-7.93679">
        <ele>2979.04</ele>
        <time>2018-06-21T07:38:25Z</time>
      </trkpt>
      <trkpt lat="31.06646" lon="-7.93652">
        <ele>2973.61</ele>
        <time>2018-06-21T07:39:25Z</time>
      </trkpt>
      <trkpt lat="31.0672" lon="-7.93629">
        <ele>2966.11</ele>
        <time>2018-06-21T07:40:25Z</time>
      </trkpt>
      <trkpt lat="31.06793" lon="-7.93601">
        <ele>2961.75</ele>
        <time>2018-06-21T07:41:25Z</time>
      </trkpt>
      <trkpt lat="31.06857" lon="-7.93606">
        <ele>2952.57</ele>
        <time>2018-06-21T07:42:25Z</time>
      </trkpt>
      <trkpt lat="31.06898" lon="-7.93596">
        <ele>2947.36</ele>
        <time>2018-06-21T07:43:25Z</time>
      </trkpt>
      <trkpt lat="31.06955" lon="-7.93562">
        <ele>2937.47</ele>
        <time>2018-06-21T07:44:25Z</time>
      </trkpt>
      <trkpt lat="31.07009" lon="-7.93521">
        <ele>2929.77</ele>
        <time>2018-06-21T07:45:25Z</time>
      </trkpt>
      <trkpt lat="31.07046" lon="-7.93521">
        <ele>2926.39</ele>
        <time>2018-06-21T07:46:25Z</time>
      </trkpt>
      <trkpt lat="31.07083" lon="-7.93516">
        <ele>2922.81</ele>
        <time>2018-06-21T07:47:25Z</time>
      </trkpt>
      <trkpt lat="31.07135" lon="-7.93504">
        <ele>2916.33</ele>
        <time>2018-06-21T07:48:25Z</time>
      </trkpt>
      <trkpt lat="31.07188" lon="-7.93482">
        <ele>2912.37</ele>
        <time>2018-06-21T07:49:25Z</time>
      </trkpt>
      <trkpt lat="31.07259" lon="-7.93446">
        <ele>2905.3</ele>
        <time>2018-06-21T07:50:25Z</time>
      </trkpt>
      <trkpt lat="31.0728" lon="-7.93428">
        <ele>2901.76</ele>
        <time>2018-06-21T07:51:25Z</time>
      </trkpt>
      <trkpt lat="31.07336" lon="-7.93354">
        <ele>2895.64</ele>
        <time>2018-06-21T07:52:25Z</time>
      </trkpt>
      <trkpt lat="31.07388" lon="-7.93315">
        <ele>2886.96</ele>
        <time>2018-06-21T07:53:25Z</time>
      </trkpt>
      <trkpt lat="31.07437" lon="-7.93287">
        <ele>2880.47</ele>
        <time>2018-06-21T07:54:25Z</time>
      </trkpt>
      <trkpt lat="31.07497" lon="-7.93259">
        <ele>2873.1</ele>
        <time>2018-06-21T07:55:26Z</time>
      </trkpt>
      <trkpt lat="31.07518" lon="-7.93222">
        <ele>2868.26</ele>
        <time>2018-06-21T07:56:26Z</time>
      </trkpt>
      <trkpt lat="31.07561" lon="-7.93185">
        <ele>2859.46</ele>
        <time>2018-06-21T07:57:26Z</time>
      </trkpt>
      <trkpt lat="31.07614" lon="-7.9315">
        <ele>2852.22</ele>
        <time>2018-06-21T07:58:26Z</time>
      </trkpt>
      <trkpt lat="31.07662" lon="-7.93121">
        <ele>2846.97</ele>
        <time>2018-06-21T07:59:26Z</time>
      </trkpt>
      <trkpt lat="31.07713" lon="-7.93093">
        <ele>2838.54</ele>
        <time>2018-06-21T08:00:26Z</time>
      </trkpt>
      <trkpt lat="31.07758" lon="-7.9307">
        <ele>2831.56</ele>
        <time>2018-06-21T08:01:26Z</time>
      </trkpt>
      <trkpt lat="31.07809" lon="-7.93046">
        <ele>2824.3</ele>
        <time>2018-06-21T08:02:26Z</time>
      </trkpt>
      <trkpt lat="31.07817" lon="-7.93038">
        <ele>2822.16</ele>
        <time>2018-06-21T08:03:26Z</time>
      </trkpt>
      <trkpt lat="31.07819" lon="-7.93035">
        <ele>2822.2</ele>
        <time>2018-06-21T08:04:26Z</time>
      </trkpt>
      <trkpt lat="31.07817" lon="-7.93039">
        <ele>2822.88</ele>
        <time>2018-06-21T08:05:26Z</time>
      </trkpt>
      <trkpt lat="31.07816" lon="-7.93039">
        <ele>2822.52</ele>
        <time>2018-06-21T08:06:27Z</time>
      </trkpt>
      <trkpt lat="31.0782" lon="-7.93035">
        <ele>2822.08</ele>
        <time>2018-06-21T08:07:27Z</time>
      </trkpt>
      <trkpt lat="31.07825" lon="-7.93035">
        <ele>2821.83</ele>
        <time>2018-06-21T08:08:28Z</time>
      </trkpt>
      <trkpt lat="31.07821" lon="-7.93031">
        <ele>2821.35</ele>
        <time>2018-06-21T08:09:28Z</time>
      </trkpt>
      <trkpt lat="31.0784" lon="-7.93018">
        <ele>2819.5</ele>
        <time>2018-06-21T08:10:28Z</time>
      </trkpt>
      <trkpt lat="31.07882" lon="-7.92993">
        <ele>2813.33</ele>
        <time>2018-06-21T08:11:28Z</time>
      </trkpt>
      <trkpt lat="31.07927" lon="-7.92962">
        <ele>2804.89</ele>
        <time>2018-06-21T08:12:28Z</time>
      </trkpt>
      <trkpt lat="31.07974" lon="-7.92983">
        <ele>2800.77</ele>
        <time>2018-06-21T08:13:28Z</time>
      </trkpt>
      <trkpt lat="31.08013" lon="-7.92964">
        <ele>2797.3</ele>
        <time>2018-06-21T08:14:28Z</time>
      </trkpt>
      <trkpt lat="31.08056" lon="-7.92939">
        <ele>2790.45</ele>
        <time>2018-06-21T08:15:28Z</time>
      </trkpt>
      <trkpt lat="31.08096" lon="-7.92901">
        <ele>2784.35</ele>
        <time>2018-06-21T08:16:28Z</time>
      </trkpt>
      <trkpt lat="31.08124" lon="-7.92859">
        <ele>2777.94</ele>
        <time>2018-06-21T08:17:28Z</time>
      </trkpt>
      <trkpt lat="31.0815" lon="-7.928">
        <ele>2769.63</ele>
        <time>2018-06-21T08:18:28Z</time>
      </trkpt>
      <trkpt lat="31.08146" lon="-7.92758">
        <ele>2759.47</ele>
        <time>2018-06-21T08:19:28Z</time>
      </trkpt>
      <trkpt lat="31.08183" lon="-7.92724">
        <ele>2749.54</ele>
        <time>2018-06-21T08:20:28Z</time>
      </trkpt>
      <trkpt lat="31.08223" lon="-7.92709">
        <ele>2740.84</ele>
        <time>2018-06-21T08:21:28Z</time>
      </trkpt>
      <trkpt lat="31.08264" lon="-7.92688">
        <ele>2732.59</ele>
        <time>2018-06-21T08:22:28Z</time>
      </trkpt>
      <trkpt lat="31.08307" lon="-7.92659">
        <ele>2723.08</ele>
        <time>2018-06-21T08:23:28Z</time>
      </trkpt>
      <trkpt lat="31.08346" lon="-7.92637">
        <ele>2715.46</ele>
        <time>2018-06-21T08:24:28Z</time>
      </trkpt>
      <trkpt lat="31.08387" lon="-7.92605">
        <ele>2705.74</ele>
        <time>2018-06-21T08:25:28Z</time>
      </trkpt>
      <trkpt lat="31.08434" lon="-7.92574">
        <ele>2698.52</ele>
        <time>2018-06-21T08:26:28Z</time>
      </trkpt>
      <trkpt lat="31.08454" lon="-7.92528">
        <ele>2692.18</ele>
        <time>2018-06-21T08:27:28Z</time>
      </trkpt>
      <trkpt lat="31.08453" lon="-7.92464">
        <ele>2681.99</ele>
        <time>2018-06-21T08:28:28Z</time>
      </trkpt>
      <trkpt lat="31.08455" lon="-7.92399">
        <ele>2672.52</ele>
        <time>2018-06-21T08:29:28Z</time>
      </trkpt>
      <trkpt lat="31.08489" lon="-7.92341">
        <ele>2663.65</ele>
        <time>2018-06-21T08:30:28Z</time>
      </trkpt>
      <trkpt lat="31.08508" lon="-7.92274">
        <ele>2654.16</ele>
        <time>2018-06-21T08:31:28Z</time>
      </trkpt>
      <trkpt lat="31.08502" lon="-7.92221">
        <ele>2643.88</ele>
        <time>2018-06-21T08:32:28Z</time>
      </trkpt>
      <trkpt lat="31.08505" lon="-7.92162">
        <ele>2632.9</ele>
        <time>2018-06-21T08:33:28Z</time>
      </trkpt>
      <trkpt lat="31.08499" lon="-7.92103">
        <ele>2623.03</ele>
        <time>2018-06-21T08:34:28Z</time>
      </trkpt>
      <trkpt lat="31.08492" lon="-7.92055">
        <ele>2613.69</ele>
        <time>2018-06-21T08:35:28Z</time>
      </trkpt>
      <trkpt lat="31.08513" lon="-7.91999">
        <ele>2603.38</ele>
        <time>2018-06-21T08:36:28Z</time>
      </trkpt>
      <trkpt lat="31.08532" lon="-7.91942">
        <ele>2591.44</ele>
        <time>2018-06-21T08:37:28Z</time>
      </trkpt>
      <trkpt lat="31.08553" lon="-7.91886">
        <ele>2580.06</ele>
        <time>2018-06-21T08:38:28Z</time>
      </trkpt>
      <trkpt lat="31.08585" lon="-7.91841">
        <ele>2570.02</ele>
        <time>2018-06-21T08:39:28Z</time>
      </trkpt>
      <trkpt lat="31.0862" lon="-7.91791">
        <ele>2560.92</ele>
        <time>2018-06-21T08:40:28Z</time>
      </trkpt>
      <trkpt lat="31.08654" lon="-7.91736">
        <ele>2556.55</ele>
        <time>2018-06-21T08:41:28Z</time>
      </trkpt>
      <trkpt lat="31.08688" lon="-7.91706">
        <ele>2551.89</ele>
        <time>2018-06-21T08:42:28Z</time>
      </trkpt>
      <trkpt lat="31.08724" lon="-7.91675">
        <ele>2543.98</ele>
        <time>2018-06-21T08:43:28Z</time>
      </trkpt>
      <trkpt lat="31.08765" lon="-7.91649">
        <ele>2534.17</ele>
        <time>2018-06-21T08:44:28Z</time>
      </trkpt>
      <trkpt lat="31.088" lon="-7.91615">
        <ele>2523.19</ele>
        <time>2018-06-21T08:45:28Z</time>
      </trkpt>
      <trkpt lat="31.08837" lon="-7.91577">
        <ele>2512.63</ele>
        <time>2018-06-21T08:46:28Z</time>
      </trkpt>
      <trkpt lat="31.08875" lon="-7.91542">
        <ele>2500.79</ele>
        <time>2018-06-21T08:47:28Z</time>
      </trkpt>
      <trkpt lat="31.08918" lon="-7.91509">
        <ele>2489.3</ele>
        <time>2018-06-21T08:48:28Z</time>
      </trkpt>
      <trkpt lat="31.08938" lon="-7.91496">
        <ele>2484.19</ele>
        <time>2018-06-21T08:49:28Z</time>
      </trkpt>
      <trkpt lat="31.08971" lon="-7.91479">
        <ele>2476.11</ele>
        <time>2018-06-21T08:50:28Z</time>
      </trkpt>
      <trkpt lat="31.09014" lon="-7.91474">
        <ele>2468.44</ele>
        <time>2018-06-21T08:51:28Z</time>
      </trkpt>
      <trkpt lat="31.0902" lon="-7.91474">
        <ele>2466.93</ele>
        <time>2018-06-21T08:52:28Z</time>
      </trkpt>
      <trkpt lat="31.09021" lon="-7.91474">
        <ele>2466.93</ele>
        <time>2018-06-21T08:53:28Z</time>
      </trkpt>
      <trkpt lat="31.09021" lon="-7.91471">
        <ele>2466.61</ele>
        <time>2018-06-21T08:54:28Z</time>
      </trkpt>
      <trkpt lat="31.09027" lon="-7.91475">
        <ele>2466.26</ele>
        <time>2018-06-21T08:55:28Z</time>
      </trkpt>
      <trkpt lat="31.09025" lon="-7.91473">
        <ele>2465.5</ele>
        <time>2018-06-21T08:56:28Z</time>
      </trkpt>
      <trkpt lat="31.09064" lon="-7.91485">
        <ele>2460.15</ele>
        <time>2018-06-21T08:57:28Z</time>
      </trkpt>
      <trkpt lat="31.0911" lon="-7.9149">
        <ele>2454</ele>
        <time>2018-06-21T08:58:28Z</time>
      </trkpt>
      <trkpt lat="31.09149" lon="-7.91501">
        <ele>2444.4</ele>
        <time>2018-06-21T08:59:28Z</time>
      </trkpt>
      <trkpt lat="31.09164" lon="-7.91492">
        <ele>2436.33</ele>
        <time>2018-06-21T09:00:28Z</time>
      </trkpt>
      <trkpt lat="31.09202" lon="-7.91524">
        <ele>2429.81</ele>
        <time>2018-06-21T09:01:28Z</time>
      </trkpt>
      <trkpt lat="31.09246" lon="-7.91545">
        <ele>2423.78</ele>
        <time>2018-06-21T09:02:28Z</time>
      </trkpt>
      <trkpt lat="31.0929" lon="-7.91551">
        <ele>2416.52</ele>
        <time>2018-06-21T09:03:28Z</time>
      </trkpt>
      <trkpt lat="31.0934" lon="-7.91559">
        <ele>2409.2</ele>
        <time>2018-06-21T09:04:29Z</time>
      </trkpt>
      <trkpt lat="31.09345" lon="-7.91535">
        <ele>2400.43</ele>
        <time>2018-06-21T09:05:29Z</time>
      </trkpt>
      <trkpt lat="31.09379" lon="-7.91522">
        <ele>2390.56</ele>
        <time>2018-06-21T09:06:29Z</time>
      </trkpt>
      <trkpt lat="31.09399" lon="-7.91507">
        <ele>2383.08</ele>
        <time>2018-06-21T09:07:29Z</time>
      </trkpt>
      <trkpt lat="31.09399" lon="-7.91508">
        <ele>2383.08</ele>
        <time>2018-06-21T09:08:29Z</time>
      </trkpt>
      <trkpt lat="31.09399" lon="-7.91508">
        <ele>2383.68</ele>
        <time>2018-06-21T09:09:29Z</time>
      </trkpt>
      <trkpt lat="31.094" lon="-7.91506">
        <ele>2383.27</ele>
        <time>2018-06-21T09:10:29Z</time>
      </trkpt>
      <trkpt lat="31.09399" lon="-7.91505">
        <ele>2383.3</ele>
        <time>2018-06-21T09:11:29Z</time>
      </trkpt>
      <trkpt lat="31.09398" lon="-7.91507">
        <ele>2383.1</ele>
        <time>2018-06-21T09:12:29Z</time>
      </trkpt>
      <trkpt lat="31.09396" lon="-7.91507">
        <ele>2383.14</ele>
        <time>2018-06-21T09:13:29Z</time>
      </trkpt>
      <trkpt lat="31.09402" lon="-7.91505">
        <ele>2382.21</ele>
        <time>2018-06-21T09:14:29Z</time>
      </trkpt>
      <trkpt lat="31.09399" lon="-7.91502">
        <ele>2381.48</ele>
        <time>2018-06-21T09:15:29Z</time>
      </trkpt>
      <trkpt lat="31.09402" lon="-7.91506">
        <ele>2381.24</ele>
        <time>2018-06-21T09:16:29Z</time>
      </trkpt>
      <trkpt lat="31.09402" lon="-7.91505">
        <ele>2381.65</ele>
        <time>2018-06-21T09:17:29Z</time>
      </trkpt>
      <trkpt lat="31.09402" lon="-7.91504">
        <ele>2381.53</ele>
        <time>2018-06-21T09:18:29Z</time>
      </trkpt>
      <trkpt lat="31.09411" lon="-7.91494">
        <ele>2377.84</ele>
        <time>2018-06-21T09:19:29Z</time>
      </trkpt>
      <trkpt lat="31.09421" lon="-7.91484">
        <ele>2374.47</ele>
        <time>2018-06-21T09:20:29Z</time>
      </trkpt>
      <trkpt lat="31.09391" lon="-7.91461">
        <ele>2365.49</ele>
        <time>2018-06-21T09:21:29Z</time>
      </trkpt>
      <trkpt lat="31.09378" lon="-7.91432">
        <ele>2358.14</ele>
        <time>2018-06-21T09:22:29Z</time>
      </trkpt>
      <trkpt lat="31.09376" lon="-7.91431">
        <ele>2357.46</ele>
        <time>2018-06-21T09:23:29Z</time>
      </trkpt>
      <trkpt lat="31.09401" lon="-7.91411">
        <ele>2348.71</ele>
        <time>2018-06-21T09:24:29Z</time>
      </trkpt>
      <trkpt lat="31.09433" lon="-7.91413">
        <ele>2340.17</ele>
        <time>2018-06-21T09:25:29Z</time>
      </trkpt>
      <trkpt lat="31.09467" lon="-7.91415">
        <ele>2331.13</ele>
        <time>2018-06-21T09:26:29Z</time>
      </trkpt>
      <trkpt lat="31.09507" lon="-7.91399">
        <ele>2321.99</ele>
        <time>2018-06-21T09:27:34Z</time>
      </trkpt>
      <trkpt lat="31.09553" lon="-7.91394">
        <ele>2314.09</ele>
        <time>2018-06-21T09:28:34Z</time>
      </trkpt>
      <trkpt lat="31.09569" lon="-7.91383">
        <ele>2310.92</ele>
        <time>2018-06-21T09:29:34Z</time>
      </trkpt>
      <trkpt lat="31.09606" lon="-7.91361">
        <ele>2304.36</ele>
        <time>2018-06-21T09:30:34Z</time>
      </trkpt>
      <trkpt lat="31.09658" lon="-7.91345">
        <ele>2297.46</ele>
        <time>2018-06-21T09:31:34Z</time>
      </trkpt>
      <trkpt lat="31.09679" lon="-7.91334">
        <ele>2289.34</ele>
        <time>2018-06-21T09:32:34Z</time>
      </trkpt>
      <trkpt lat="31.09696" lon="-7.91321">
        <ele>2280.68</ele>
        <time>2018-06-21T09:33:34Z</time>
      </trkpt>
      <trkpt lat="31.09708" lon="-7.91339">
        <ele>2278.4</ele>
        <time>2018-06-21T09:34:35Z</time>
      </trkpt>
      <trkpt lat="31.0971" lon="-7.91331">
        <ele>2276.05</ele>
        <time>2018-06-21T09:35:35Z</time>
      </trkpt>
      <trkpt lat="31.09725" lon="-7.91333">
        <ele>2268.77</ele>
        <time>2018-06-21T09:36:35Z</time>
      </trkpt>
      <trkpt lat="31.09738" lon="-7.9133">
        <ele>2261.48</ele>
        <time>2018-06-21T09:37:35Z</time>
      </trkpt>
      <trkpt lat="31.09762" lon="-7.91373">
        <ele>2256.14</ele>
        <time>2018-06-21T09:38:35Z</time>
      </trkpt>
      <trkpt lat="31.09763" lon="-7.91373">
        <ele>2256.11</ele>
        <time>2018-06-21T09:39:35Z</time>
      </trkpt>
      <trkpt lat="31.0977" lon="-7.91362">
        <ele>2249.32</ele>
        <time>2018-06-21T09:40:35Z</time>
      </trkpt>
      <trkpt lat="31.09776" lon="-7.91348">
        <ele>2241.55</ele>
        <time>2018-06-21T09:41:35Z</time>
      </trkpt>
      <trkpt lat="31.09779" lon="-7.91333">
        <ele>2236.26</ele>
        <time>2018-06-21T09:42:35Z</time>
      </trkpt>
      <trkpt lat="31.09782" lon="-7.91335">
        <ele>2234.64</ele>
        <time>2018-06-21T09:43:36Z</time>
      </trkpt>
      <trkpt lat="31.09777" lon="-7.91321">
        <ele>2235.27</ele>
        <time>2018-06-21T09:44:36Z</time>
      </trkpt>
      <trkpt lat="31.09779" lon="-7.91321">
        <ele>2235.27</ele>
        <time>2018-06-21T09:45:36Z</time>
      </trkpt>
      <trkpt lat="31.09783" lon="-7.91326">
        <ele>2234.94</ele>
        <time>2018-06-21T09:46:36Z</time>
      </trkpt>
      <trkpt lat="31.09778" lon="-7.9132">
        <ele>2235.12</ele>
        <time>2018-06-21T09:47:36Z</time>
      </trkpt>
      <trkpt lat="31.09776" lon="-7.91325">
        <ele>2235.01</ele>
        <time>2018-06-21T09:48:36Z</time>
      </trkpt>
      <trkpt lat="31.0978" lon="-7.91321">
        <ele>2235.47</ele>
        <time>2018-06-21T09:49:36Z</time>
      </trkpt>
      <trkpt lat="31.09792" lon="-7.91327">
        <ele>2235.04</ele>
        <time>2018-06-21T09:50:37Z</time>
      </trkpt>
      <trkpt lat="31.09775" lon="-7.91312">
        <ele>2234.2</ele>
        <time>2018-06-21T09:51:37Z</time>
      </trkpt>
      <trkpt lat="31.09778" lon="-7.91328">
        <ele>2233.98</ele>
        <time>2018-06-21T09:52:37Z</time>
      </trkpt>
      <trkpt lat="31.09775" lon="-7.9132">
        <ele>2233.81</ele>
        <time>2018-06-21T09:53:37Z</time>
      </trkpt>
      <trkpt lat="31.09776" lon="-7.91317">
        <ele>2233.6</ele>
        <time>2018-06-21T09:54:37Z</time>
      </trkpt>
      <trkpt lat="31.09773" lon="-7.91318">
        <ele>2233.59</ele>
        <time>2018-06-21T09:55:37Z</time>
      </trkpt>
      <trkpt lat="31.09774" lon="-7.91314">
        <ele>2233.47</ele>
        <time>2018-06-21T09:56:37Z</time>
      </trkpt>
      <trkpt lat="31.09774" lon="-7.9132">
        <ele>2233.45</ele>
        <time>2018-06-21T09:57:37Z</time>
      </trkpt>
      <trkpt lat="31.09769" lon="-7.91309">
        <ele>2233.25</ele>
        <time>2018-06-21T09:58:37Z</time>
      </trkpt>
      <trkpt lat="31.09771" lon="-7.91308">
        <ele>2233.18</ele>
        <time>2018-06-21T09:59:37Z</time>
      </trkpt>
      <trkpt lat="31.0977" lon="-7.9131">
        <ele>2233.14</ele>
        <time>2018-06-21T10:00:38Z</time>
      </trkpt>
      <trkpt lat="31.09769" lon="-7.91304">
        <ele>2233.02</ele>
        <time>2018-06-21T10:01:39Z</time>
      </trkpt>
      <trkpt lat="31.09768" lon="-7.91301">
        <ele>2232.99</ele>
        <time>2018-06-21T10:02:39Z</time>
      </trkpt>
      <trkpt lat="31.09768" lon="-7.91299">
        <ele>2232.77</ele>
        <time>2018-06-21T10:03:39Z</time>
      </trkpt>
      <trkpt lat="31.0977" lon="-7.91299">
        <ele>2232.78</ele>
        <time>2018-06-21T10:04:39Z</time>
      </trkpt>
      <trkpt lat="31.09769" lon="-7.91299">
        <ele>2232.63</ele>
        <time>2018-06-21T10:05:39Z</time>
      </trkpt>
      <trkpt lat="31.09768" lon="-7.91299">
        <ele>2232.77</ele>
        <time>2018-06-21T10:06:39Z</time>
      </trkpt>
      <trkpt lat="31.09769" lon="-7.913">
        <ele>2232.97</ele>
        <time>2018-06-21T10:07:39Z</time>
      </trkpt>
      <trkpt lat="31.09768" lon="-7.91301">
        <ele>2232.92</ele>
        <time>2018-06-21T10:08:40Z</time>
      </trkpt>
      <trkpt lat="31.09768" lon="-7.91299">
        <ele>2232.9</ele>
        <time>2018-06-21T10:09:40Z</time>
      </trkpt>
      <trkpt lat="31.09768" lon="-7.91303">
        <ele>2232.96</ele>
        <time>2018-06-21T10:10:40Z</time>
      </trkpt>
      <trkpt lat="31.09768" lon="-7.91301">
        <ele>2232.94</ele>
        <time>2018-06-21T10:11:41Z</time>
      </trkpt>
      <trkpt lat="31.09768" lon="-7.91303">
        <ele>2232.91</ele>
        <time>2018-06-21T10:12:41Z</time>
      </trkpt>
      <trkpt lat="31.09768" lon="-7.91305">
        <ele>2232.84</ele>
        <time>2018-06-21T10:13:44Z</time>
      </trkpt>
      <trkpt lat="31.09765" lon="-7.91296">
        <ele>2232.51</ele>
        <time>2018-06-21T10:14:44Z</time>
      </trkpt>
      <trkpt lat="31.09769" lon="-7.91302">
        <ele>2232.7</ele>
        <time>2018-06-21T10:15:44Z</time>
      </trkpt>
      <trkpt lat="31.09769" lon="-7.91299">
        <ele>2232.54</ele>
        <time>2018-06-21T10:16:44Z</time>
      </trkpt>
      <trkpt lat="31.09768" lon="-7.91298">
        <ele>2232.51</ele>
        <time>2018-06-21T10:17:44Z</time>
      </trkpt>
      <trkpt lat="31.09764" lon="-7.91297">
        <ele>2232.79</ele>
        <time>2018-06-21T10:18:44Z</time>
      </trkpt>
      <trkpt lat="31.09763" lon="-7.91305">
        <ele>2233.85</ele>
        <time>2018-06-21T10:19:44Z</time>
      </trkpt>
      <trkpt lat="31.09764" lon="-7.9131">
        <ele>2233.39</ele>
        <time>2018-06-21T10:20:44Z</time>
      </trkpt>
      <trkpt lat="31.09772" lon="-7.91302">
        <ele>2230.07</ele>
        <time>2018-06-21T10:21:44Z</time>
      </trkpt>
      <trkpt lat="31.09782" lon="-7.9131">
        <ele>2227.04</ele>
        <time>2018-06-21T10:22:44Z</time>
      </trkpt>
      <trkpt lat="31.09797" lon="-7.91299">
        <ele>2216.91</ele>
        <time>2018-06-21T10:23:44Z</time>
      </trkpt>
      <trkpt lat="31.098" lon="-7.91271">
        <ele>2211.09</ele>
        <time>2018-06-21T10:24:44Z</time>
      </trkpt>
      <trkpt lat="31.0981" lon="-7.91271">
        <ele>2203.99</ele>
        <time>2018-06-21T10:25:44Z</time>
      </trkpt>
      <trkpt lat="31.09836" lon="-7.91305">
        <ele>2194.95</ele>
        <time>2018-06-21T10:26:44Z</time>
      </trkpt>
      <trkpt lat="31.09865" lon="-7.91286">
        <ele>2188.85</ele>
        <time>2018-06-21T10:27:44Z</time>
      </trkpt>
      <trkpt lat="31.09905" lon="-7.91331">
        <ele>2185.88</ele>
        <time>2018-06-21T10:28:44Z</time>
      </trkpt>
      <trkpt lat="31.09948" lon="-7.91397">
        <ele>2188.94</ele>
        <time>2018-06-21T10:29:44Z</time>
      </trkpt>
      <trkpt lat="31.10001" lon="-7.91448">
        <ele>2187.42</ele>
        <time>2018-06-21T10:30:44Z</time>
      </trkpt>
      <trkpt lat="31.10053" lon="-7.91463">
        <ele>2181.16</ele>
        <time>2018-06-21T10:31:44Z</time>
      </trkpt>
      <trkpt lat="31.10085" lon="-7.91444">
        <ele>2178.53</ele>
        <time>2018-06-21T10:32:45Z</time>
      </trkpt>
      <trkpt lat="31.10087" lon="-7.91443">
        <ele>2177.9</ele>
        <time>2018-06-21T10:33:46Z</time>
      </trkpt>
      <trkpt lat="31.10087" lon="-7.91445">
        <ele>2177.93</ele>
        <time>2018-06-21T10:34:46Z</time>
      </trkpt>
      <trkpt lat="31.10103" lon="-7.91464">
        <ele>2174.3</ele>
        <time>2018-06-21T10:35:46Z</time>
      </trkpt>
      <trkpt lat="31.10124" lon="-7.91523">
        <ele>2168.83</ele>
        <time>2018-06-21T10:36:46Z</time>
      </trkpt>
      <trkpt lat="31.10161" lon="-7.91572">
        <ele>2161.51</ele>
        <time>2018-06-21T10:37:46Z</time>
      </trkpt>
      <trkpt lat="31.10194" lon="-7.91621">
        <ele>2157.81</ele>
        <time>2018-06-21T10:38:46Z</time>
      </trkpt>
      <trkpt lat="31.10226" lon="-7.91652">
        <ele>2148.49</ele>
        <time>2018-06-21T10:39:46Z</time>
      </trkpt>
      <trkpt lat="31.10273" lon="-7.91666">
        <ele>2140.25</ele>
        <time>2018-06-21T10:40:46Z</time>
      </trkpt>
      <trkpt lat="31.10324" lon="-7.91682">
        <ele>2130.85</ele>
        <time>2018-06-21T10:41:46Z</time>
      </trkpt>
      <trkpt lat="31.10381" lon="-7.91687">
        <ele>2123.08</ele>
        <time>2018-06-21T10:42:46Z</time>
      </trkpt>
      <trkpt lat="31.10434" lon="-7.91694">
        <ele>2114.8</ele>
        <time>2018-06-21T10:43:46Z</time>
      </trkpt>
      <trkpt lat="31.10476" lon="-7.91719">
        <ele>2107.88</ele>
        <time>2018-06-21T10:44:46Z</time>
      </trkpt>
      <trkpt lat="31.10531" lon="-7.91753">
        <ele>2100.32</ele>
        <time>2018-06-21T10:45:46Z</time>
      </trkpt>
      <trkpt lat="31.10562" lon="-7.91797">
        <ele>2092.13</ele>
        <time>2018-06-21T10:46:46Z</time>
      </trkpt>
      <trkpt lat="31.10614" lon="-7.9181">
        <ele>2085.72</ele>
        <time>2018-06-21T10:47:46Z</time>
      </trkpt>
      <trkpt lat="31.10641" lon="-7.91828">
        <ele>2076.93</ele>
        <time>2018-06-21T10:48:46Z</time>
      </trkpt>
      <trkpt lat="31.10661" lon="-7.91871">
        <ele>2069.33</ele>
        <time>2018-06-21T10:49:46Z</time>
      </trkpt>
      <trkpt lat="31.10663" lon="-7.91894">
        <ele>2059.5</ele>
        <time>2018-06-21T10:50:46Z</time>
      </trkpt>
      <trkpt lat="31.10716" lon="-7.91902">
        <ele>2049.77</ele>
        <time>2018-06-21T10:51:46Z</time>
      </trkpt>
      <trkpt lat="31.10732" lon="-7.91917">
        <ele>2044.71</ele>
        <time>2018-06-21T10:52:46Z</time>
      </trkpt>
      <trkpt lat="31.10738" lon="-7.91928">
        <ele>2040.03</ele>
        <time>2018-06-21T10:53:46Z</time>
      </trkpt>
      <trkpt lat="31.10745" lon="-7.91938">
        <ele>2034.59</ele>
        <time>2018-06-21T10:54:46Z</time>
      </trkpt>
      <trkpt lat="31.10761" lon="-7.91948">
        <ele>2030.24</ele>
        <time>2018-06-21T10:55:46Z</time>
      </trkpt>
      <trkpt lat="31.10805" lon="-7.91959">
        <ele>2020.3</ele>
        <time>2018-06-21T10:56:46Z</time>
      </trkpt>
      <trkpt lat="31.10851" lon="-7.91959">
        <ele>2010.37</ele>
        <time>2018-06-21T10:57:46Z</time>
      </trkpt>
      <trkpt lat="31.10901" lon="-7.91969">
        <ele>2000.85</ele>
        <time>2018-06-21T10:58:46Z</time>
      </trkpt>
      <trkpt lat="31.10953" lon="-7.91964">
        <ele>1993.02</ele>
        <time>2018-06-21T10:59:46Z</time>
      </trkpt>
      <trkpt lat="31.10998" lon="-7.91967">
        <ele>1983.94</ele>
        <time>2018-06-21T11:00:47Z</time>
      </trkpt>
      <trkpt lat="31.11014" lon="-7.91981">
        <ele>1974.11</ele>
        <time>2018-06-21T11:01:47Z</time>
      </trkpt>
      <trkpt lat="31.11065" lon="-7.91985">
        <ele>1965.98</ele>
        <time>2018-06-21T11:02:47Z</time>
      </trkpt>
      <trkpt lat="31.1112" lon="-7.91993">
        <ele>1958.05</ele>
        <time>2018-06-21T11:03:47Z</time>
      </trkpt>
      <trkpt lat="31.1117" lon="-7.91988">
        <ele>1949.8</ele>
        <time>2018-06-21T11:04:47Z</time>
      </trkpt>
      <trkpt lat="31.11192" lon="-7.91997">
        <ele>1944.62</ele>
        <time>2018-06-21T11:05:47Z</time>
      </trkpt>
      <trkpt lat="31.11199" lon="-7.92011">
        <ele>1940.53</ele>
        <time>2018-06-21T11:06:47Z</time>
      </trkpt>
      <trkpt lat="31.11234" lon="-7.92013">
        <ele>1932.58</ele>
        <time>2018-06-21T11:07:47Z</time>
      </trkpt>
      <trkpt lat="31.11279" lon="-7.92006">
        <ele>1924.46</ele>
        <time>2018-06-21T11:08:47Z</time>
      </trkpt>
      <trkpt lat="31.11313" lon="-7.91968">
        <ele>1917.66</ele>
        <time>2018-06-21T11:09:47Z</time>
      </trkpt>
      <trkpt lat="31.11309" lon="-7.91996">
        <ele>1911.8</ele>
        <time>2018-06-21T11:10:48Z</time>
      </trkpt>
      <trkpt lat="31.11334" lon="-7.91983">
        <ele>1908.07</ele>
        <time>2018-06-21T11:11:48Z</time>
      </trkpt>
      <trkpt lat="31.11342" lon="-7.92011">
        <ele>1895.76</ele>
        <time>2018-06-21T11:12:48Z</time>
      </trkpt>
      <trkpt lat="31.11378" lon="-7.92009">
        <ele>1886.77</ele>
        <time>2018-06-21T11:13:48Z</time>
      </trkpt>
      <trkpt lat="31.11404" lon="-7.91991">
        <ele>1880.91</ele>
        <time>2018-06-21T11:14:49Z</time>
      </trkpt>
      <trkpt lat="31.11425" lon="-7.91988">
        <ele>1874.86</ele>
        <time>2018-06-21T11:15:50Z</time>
      </trkpt>
      <trkpt lat="31.11441" lon="-7.9198">
        <ele>1870.93</ele>
        <time>2018-06-21T11:16:50Z</time>
      </trkpt>
      <trkpt lat="31.11458" lon="-7.91981">
        <ele>1867.05</ele>
        <time>2018-06-21T11:17:50Z</time>
      </trkpt>
      <trkpt lat="31.11468" lon="-7.9198">
        <ele>1865.14</ele>
        <time>2018-06-21T11:18:50Z</time>
      </trkpt>
      <trkpt lat="31.11479" lon="-7.91983">
        <ele>1862.54</ele>
        <time>2018-06-21T11:19:50Z</time>
      </trkpt>
      <trkpt lat="31.1152" lon="-7.92005">
        <ele>1855.73</ele>
        <time>2018-06-21T11:20:50Z</time>
      </trkpt>
      <trkpt lat="31.1159" lon="-7.92036">
        <ele>1849.49</ele>
        <time>2018-06-21T11:21:50Z</time>
      </trkpt>
      <trkpt lat="31.11655" lon="-7.92062">
        <ele>1846.95</ele>
        <time>2018-06-21T11:22:50Z</time>
      </trkpt>
      <trkpt lat="31.11734" lon="-7.92098">
        <ele>1843.01</ele>
        <time>2018-06-21T11:23:52Z</time>
      </trkpt>
      <trkpt lat="31.11778" lon="-7.92101">
        <ele>1841.37</ele>
        <time>2018-06-21T11:24:52Z</time>
      </trkpt>
      <trkpt lat="31.11844" lon="-7.92139">
        <ele>1838.11</ele>
        <time>2018-06-21T11:25:52Z</time>
      </trkpt>
      <trkpt lat="31.119" lon="-7.92104">
        <ele>1835.56</ele>
        <time>2018-06-21T11:26:52Z</time>
      </trkpt>
      <trkpt lat="31.11943" lon="-7.92091">
        <ele>1833.56</ele>
        <time>2018-06-21T11:27:52Z</time>
      </trkpt>
      <trkpt lat="31.11974" lon="-7.92137">
        <ele>1832.98</ele>
        <time>2018-06-21T11:28:52Z</time>
      </trkpt>
      <trkpt lat="31.11975" lon="-7.92138">
        <ele>1833.1</ele>
        <time>2018-06-21T11:28:53Z</time>
      </trkpt>
      <trkpt lat="31.12053" lon="-7.92171">
        <ele>1829.7</ele>
        <time>2018-06-21T11:29:53Z</time>
      </trkpt>
      <trkpt lat="31.12114" lon="-7.92161">
        <ele>1828.32</ele>
        <time>2018-06-21T11:30:53Z</time>
      </trkpt>
      <trkpt lat="31.12179" lon="-7.92124">
        <ele>1827.2</ele>
        <time>2018-06-21T11:31:54Z</time>
      </trkpt>
      <trkpt lat="31.12249" lon="-7.92114">
        <ele>1823.28</ele>
        <time>2018-06-21T11:32:54Z</time>
      </trkpt>
      <trkpt lat="31.12302" lon="-7.92104">
        <ele>1820.43</ele>
        <time>2018-06-21T11:33:54Z</time>
      </trkpt>
      <trkpt lat="31.12305" lon="-7.92108">
        <ele>1820.57</ele>
        <time>2018-06-21T11:34:54Z</time>
      </trkpt>
      <trkpt lat="31.12308" lon="-7.92111">
        <ele>1820.69</ele>
        <time>2018-06-21T11:35:55Z</time>
      </trkpt>
      <trkpt lat="31.12265" lon="-7.921">
        <ele>1821.27</ele>
        <time>2018-06-21T11:36:55Z</time>
      </trkpt>
      <trkpt lat="31.12258" lon="-7.92093">
        <ele>1821.05</ele>
        <time>2018-06-21T11:37:55Z</time>
      </trkpt>
      <trkpt lat="31.12302" lon="-7.92109">
        <ele>1820.15</ele>
        <time>2018-06-21T11:38:56Z</time>
      </trkpt>
      <trkpt lat="31.12306" lon="-7.92109">
        <ele>1819.76</ele>
        <time>2018-06-21T11:39:57Z</time>
      </trkpt>
      <trkpt lat="31.12306" lon="-7.92113">
        <ele>1820.44</ele>
        <time>2018-06-21T11:40:57Z</time>
      </trkpt>
      <trkpt lat="31.12307" lon="-7.92113">
        <ele>1819.47</ele>
        <time>2018-06-21T11:41:57Z</time>
      </trkpt>
      <trkpt lat="31.12306" lon="-7.92114">
        <ele>1818.81</ele>
        <time>2018-06-21T11:42:57Z</time>
      </trkpt>
      <trkpt lat="31.1231" lon="-7.92108">
        <ele>1818.71</ele>
        <time>2018-06-21T11:43:57Z</time>
      </trkpt>
      <trkpt lat="31.1231" lon="-7.92111">
        <ele>1818.88</ele>
        <time>2018-06-21T11:44:57Z</time>
      </trkpt>
      <trkpt lat="31.1231" lon="-7.92112">
        <ele>1818.79</ele>
        <time>2018-06-21T11:45:57Z</time>
      </trkpt>
      <trkpt lat="31.12305" lon="-7.92133">
        <ele>1818.83</ele>
        <time>2018-06-21T11:46:58Z</time>
      </trkpt>
      <trkpt lat="31.12305" lon="-7.92114">
        <ele>1819.03</ele>
        <time>2018-06-21T11:47:58Z</time>
      </trkpt>
      <trkpt lat="31.12308" lon="-7.92109">
        <ele>1818.43</ele>
        <time>2018-06-21T11:48:59Z</time>
      </trkpt>
      <trkpt lat="31.12299" lon="-7.9212">
        <ele>1818.97</ele>
        <time>2018-06-21T11:50:00Z</time>
      </trkpt>
      <trkpt lat="31.12306" lon="-7.92112">
        <ele>1819.18</ele>
        <time>2018-06-21T11:51:00Z</time>
      </trkpt>
      <trkpt lat="31.12306" lon="-7.92116">
        <ele>1819.13</ele>
        <time>2018-06-21T11:52:00Z</time>
      </trkpt>
      <trkpt lat="31.12309" lon="-7.92109">
        <ele>1819.05</ele>
        <time>2018-06-21T11:53:00Z</time>
      </trkpt>
      <trkpt lat="31.12305" lon="-7.92104">
        <ele>1819.61</ele>
        <time>2018-06-21T11:54:00Z</time>
      </trkpt>
      <trkpt lat="31.12304" lon="-7.92127">
        <ele>1819.68</ele>
        <time>2018-06-21T11:55:00Z</time>
      </trkpt>
      <trkpt lat="31.12305" lon="-7.92106">
        <ele>1819.71</ele>
        <time>2018-06-21T11:56:00Z</time>
      </trkpt>
      <trkpt lat="31.12302" lon="-7.92119">
        <ele>1819.99</ele>
        <time>2018-06-21T11:57:00Z</time>
      </trkpt>
      <trkpt lat="31.1231" lon="-7.92109">
        <ele>1819.88</ele>
        <time>2018-06-21T11:58:00Z</time>
      </trkpt>
      <trkpt lat="31.12307" lon="-7.92109">
        <ele>1819.8</ele>
        <time>2018-06-21T11:59:00Z</time>
      </trkpt>
      <trkpt lat="31.12307" lon="-7.92109">
        <ele>1820.17</ele>
        <time>2018-06-21T12:00:01Z</time>
      </trkpt>
      <trkpt lat="31.1231" lon="-7.92108">
        <ele>1820.1</ele>
        <time>2018-06-21T12:01:01Z</time>
      </trkpt>
      <trkpt lat="31.12312" lon="-7.92104">
        <ele>1819.61</ele>
        <time>2018-06-21T12:02:01Z</time>
      </trkpt>
      <trkpt lat="31.12305" lon="-7.92109">
        <ele>1820.05</ele>
        <time>2018-06-21T12:03:01Z</time>
      </trkpt>
      <trkpt lat="31.12304" lon="-7.92109">
        <ele>1820.06</ele>
        <time>2018-06-21T12:04:02Z</time>
      </trkpt>
      <trkpt lat="31.12308" lon="-7.92113">
        <ele>1820.06</ele>
        <time>2018-06-21T12:05:02Z</time>
      </trkpt>
      <trkpt lat="31.12308" lon="-7.92112">
        <ele>1820.07</ele>
        <time>2018-06-21T12:06:03Z</time>
      </trkpt>
      <trkpt lat="31.12306" lon="-7.92103">
        <ele>1820.13</ele>
        <time>2018-06-21T12:07:03Z</time>
      </trkpt>
      <trkpt lat="31.12307" lon="-7.9211">
        <ele>1820.83</ele>
        <time>2018-06-21T12:08:04Z</time>
      </trkpt>
      <trkpt lat="31.12307" lon="-7.92109">
        <ele>1820.79</ele>
        <time>2018-06-21T12:09:05Z</time>
      </trkpt>
      <trkpt lat="31.12324" lon="-7.92091">
        <ele>1820.85</ele>
        <time>2018-06-21T12:10:07Z</time>
      </trkpt>
      <trkpt lat="31.12304" lon="-7.92106">
        <ele>1820.83</ele>
        <time>2018-06-21T12:11:07Z</time>
      </trkpt>
      <trkpt lat="31.12304" lon="-7.92104">
        <ele>1822.03</ele>
        <time>2018-06-21T12:12:08Z</time>
      </trkpt>
      <trkpt lat="31.12308" lon="-7.92114">
        <ele>1821.23</ele>
        <time>2018-06-21T12:13:08Z</time>
      </trkpt>
      <trkpt lat="31.12307" lon="-7.92107">
        <ele>1820.4</ele>
        <time>2018-06-21T12:14:08Z</time>
      </trkpt>
      <trkpt lat="31.12309" lon="-7.92105">
        <ele>1820.89</ele>
        <time>2018-06-21T12:14:47Z</time>
      </trkpt>
    </trkseg>
  </trk>
</gpx>